Dallas, Texas
Traffic Map
Current Weather Conditions
Dallas, Texas
Overcast
Overcast
31°
Feels Like: 34°
Wind Chill: 31° Ceiling: 17000
Heat Index: 34° Visibility: 10mi
Dew Point: 22° Wind: 8mph
Humidity: 57% Direction: 190° (S)
Pressure: 29.9in Gusts: 0mph
Raw Report DataKDAL 032253Z 19007KT 10SM FEW050 SCT100 BKN170 OVC250 31/22 A2990 RMK AO2 SLP116 T03110217
Traffic Incident Summary
Active as of:
Severity:
Category:
InformationThere was an issue retrieving the traffic information for this location. Please try a different location or try again shortly.
Advertisements
Track Severe Weather on mobile